Aviation Digital Data Service (ADDS)

Output produced by TAFs form (0751 UTC 25 March 2017)
found at http://www.aviationweather.gov/adds/tafs/
 
METAR text: RJDC 250700Z 14008KT 9999 FEW040 BKN060 BKN/// 10/01 Q1017
Conditions at: RJDC (YAMAGUCHI/UBE AR, JP) observed 0700 UTC 25 March 2017
Temperature: 10.0°C (50°F)
Dewpoint: 1.0°C (34°F) [RH = 53%]
Pressure (altimeter): 30.03 inches Hg (1017.0 mb)
Winds: from the SE (140 degrees) at 9 MPH (8 knots; 4.2 m/s)
Visibility: 6 or more miles (10+ km)
Ceiling: 6000 feet AGL
Clouds: few clouds at 4000 feet AGL
broken clouds at 6000 feet AGL
Weather: no significant weather observed at this time